createdAt,value
2018-09-08T00:01:22.222Z,5.00
2018-09-08T00:03:25.781Z,4.70
2018-09-08T00:05:29.621Z,4.30
2018-09-08T00:07:38.503Z,4.70
2018-09-08T00:09:42.109Z,4.50
2018-09-08T00:11:45.659Z,4.83
2018-09-08T00:13:49.174Z,4.97
2018-09-08T00:15:57.913Z,4.47
2018-09-08T00:18:06.563Z,5.00
2018-09-08T00:20:15.357Z,5.40
2018-09-08T00:22:24.250Z,6.00
2018-09-08T00:24:33.009Z,6.27
2018-09-08T00:26:35.705Z,6.27
2018-09-08T00:28:42.152Z,5.33
2018-09-08T00:30:45.866Z,5.60
2018-09-08T00:32:49.736Z,5.57
2018-09-08T00:34:53.398Z,5.37
2018-09-08T00:36:56.975Z,5.20
2018-09-08T00:39:00.576Z,4.83
2018-09-08T00:41:04.093Z,5.63
2018-09-08T00:43:07.681Z,5.03
2018-09-08T00:45:11.301Z,4.93
2018-09-08T00:47:14.942Z,5.67
2018-09-08T00:49:18.555Z,4.97
2018-09-08T00:51:22.131Z,5.40
2018-09-08T00:53:25.694Z,5.10
2018-09-08T00:55:29.346Z,4.90
2018-09-08T00:57:32.931Z,4.90
2018-09-08T00:59:37.259Z,5.07
2018-09-08T01:01:40.840Z,4.60
2018-09-08T01:03:44.592Z,5.60
2018-09-08T01:05:48.341Z,5.00
2018-09-08T01:07:51.957Z,5.73
2018-09-08T01:09:57.008Z,7.50
2018-09-08T01:12:00.571Z,8.20
2018-09-08T01:14:04.935Z,7.43
2018-09-08T01:16:08.502Z,6.53
2018-09-08T01:18:12.190Z,7.63
2018-09-08T01:20:16.192Z,6.47
2018-09-08T01:22:19.736Z,7.30
2018-09-08T01:24:23.735Z,7.10
2018-09-08T01:26:27.324Z,7.93
2018-09-08T01:28:30.884Z,7.20
2018-09-08T01:30:34.447Z,6.70
2018-09-08T01:32:38.110Z,6.37
2018-09-08T01:34:41.731Z,6.37
2018-09-08T01:36:45.956Z,6.07
2018-09-08T01:38:49.555Z,5.77
2018-09-08T01:40:53.133Z,6.13
2018-09-08T01:42:56.699Z,5.97
2018-09-08T01:45:01.385Z,7.33
2018-09-08T01:47:04.996Z,6.83
2018-09-08T01:49:08.545Z,7.43
2018-09-08T01:51:12.558Z,7.90
2018-09-08T01:53:16.145Z,7.57
2018-09-08T01:55:19.824Z,8.20
2018-09-08T01:57:23.362Z,8.10
2018-09-08T01:59:27.036Z,8.83
2018-09-08T02:01:30.730Z,8.77
2018-09-08T02:03:34.319Z,8.87
2018-09-08T02:05:37.946Z,9.90
2018-09-08T02:07:42.110Z,8.67
2018-09-08T02:09:45.925Z,7.97
2018-09-08T02:11:49.572Z,7.80
2018-09-08T02:13:53.218Z,8.83
2018-09-08T02:15:56.840Z,6.87
2018-09-08T02:18:00.361Z,7.63
2018-09-08T02:20:04.374Z,7.80
2018-09-08T02:22:08.023Z,8.47
2018-09-08T02:24:11.546Z,7.27
2018-09-08T02:26:15.506Z,6.90
2018-09-08T02:28:19.042Z,6.47
2018-09-08T02:30:22.561Z,7.03
2018-09-08T02:32:26.160Z,9.97
2018-09-08T02:34:30.032Z,9.78
2018-09-08T02:36:33.907Z,8.80
2018-09-08T02:38:37.504Z,7.80
2018-09-08T02:40:41.247Z,7.57
2018-09-08T02:42:44.952Z,11.13
2018-09-08T02:44:48.572Z,9.13
2018-09-08T02:46:52.166Z,8.37
2018-09-08T02:48:55.801Z,9.40
2018-09-08T02:50:58.513Z,10.53
2018-09-08T02:53:01.702Z,9.80
2018-09-08T02:55:04.439Z,9.48
2018-09-08T02:57:06.804Z,9.93
2018-09-08T02:59:09.459Z,8.05
2018-09-08T03:01:12.391Z,7.90
2018-09-08T03:03:14.755Z,7.90
2018-09-08T03:05:17.210Z,7.80
2018-09-08T03:07:19.659Z,8.67
2018-09-08T03:09:22.475Z,8.95
2018-09-08T03:11:25.134Z,7.90
2018-09-08T03:13:27.503Z,7.77
2018-09-08T03:15:29.875Z,11.53
2018-09-08T03:17:32.599Z,18.62
2018-09-08T03:19:35.278Z,15.83
2018-09-08T03:21:37.725Z,15.77
2018-09-08T03:23:40.419Z,16.30
2018-09-08T03:25:43.079Z,16.93
2018-09-08T03:27:45.819Z,17.30
2018-09-08T03:29:48.655Z,18.37
2018-09-08T03:31:51.397Z,14.03
2018-09-08T03:33:54.104Z,12.50
2018-09-08T03:35:56.786Z,11.95
2018-09-08T03:37:59.461Z,11.12
2018-09-08T03:40:02.136Z,11.70
2018-09-08T03:42:04.873Z,12.13
2018-09-08T03:44:07.934Z,13.68
2018-09-08T03:46:10.659Z,12.75
2018-09-08T03:48:13.380Z,13.00
2018-09-08T03:50:16.115Z,12.55
2018-09-08T03:52:18.798Z,12.70
2018-09-08T03:54:21.473Z,12.37
2018-09-08T03:56:24.146Z,12.70
2018-09-08T03:58:26.836Z,10.25
2018-09-08T04:00:29.862Z,9.95
2018-09-08T04:02:32.578Z,11.30
2018-09-08T04:04:36.448Z,11.50
2018-09-08T04:06:40.366Z,9.93
2018-09-08T04:08:44.254Z,8.68
2018-09-08T04:10:49.064Z,10.15
2018-09-08T04:12:53.540Z,8.28
2018-09-08T04:14:57.393Z,7.78
2018-09-08T04:17:01.390Z,10.10
2018-09-08T04:19:06.017Z,9.03
2018-09-08T04:21:09.904Z,8.28
2018-09-08T04:23:13.802Z,7.58
2018-09-08T04:25:17.636Z,7.83
2018-09-08T04:27:21.555Z,7.78
2018-09-08T04:29:25.446Z,8.63
2018-09-08T04:31:29.324Z,8.58
2018-09-08T04:33:34.083Z,8.43
2018-09-08T04:35:37.954Z,9.80
2018-09-08T04:37:41.936Z,8.75
2018-09-08T04:39:46.276Z,9.85
2018-09-08T04:41:50.181Z,8.08
2018-09-08T04:43:54.120Z,8.45
2018-09-08T04:45:59.067Z,9.03
2018-09-08T04:48:02.954Z,9.13
2018-09-08T04:50:06.859Z,9.40
2018-09-08T04:52:11.587Z,8.63
2018-09-08T04:54:15.434Z,8.75
2018-09-08T04:56:19.309Z,9.80
2018-09-08T04:58:23.251Z,7.47
2018-09-08T05:00:27.129Z,7.47
2018-09-08T05:02:30.989Z,7.30
2018-09-08T05:04:35.101Z,7.67
2018-09-08T05:06:39.613Z,8.10
2018-09-08T05:08:43.917Z,7.75
2018-09-08T05:10:47.870Z,8.88
2018-09-08T05:12:52.146Z,8.98
2018-09-08T05:14:56.127Z,8.50
2018-09-08T05:17:01.689Z,8.33
2018-09-08T05:19:05.661Z,7.55
2018-09-08T05:21:09.531Z,6.92
2018-09-08T05:23:13.668Z,7.20
2018-09-08T05:25:18.378Z,7.25
2018-09-08T05:27:22.263Z,7.03
2018-09-08T05:29:26.526Z,7.80
2018-09-08T05:31:30.385Z,7.45
2018-09-08T05:33:34.340Z,7.30
2018-09-08T05:35:38.338Z,8.05
2018-09-08T05:37:42.238Z,7.35
2018-09-08T05:39:46.192Z,8.35
2018-09-08T05:41:50.047Z,7.30
2018-09-08T05:43:53.975Z,6.62
2018-09-08T05:45:58.008Z,8.48
2018-09-08T05:48:01.894Z,8.13
2018-09-08T05:50:06.740Z,8.03
2018-09-08T05:52:11.141Z,7.85
2018-09-08T05:54:15.077Z,7.60
2018-09-08T05:56:19.422Z,7.80
2018-09-08T05:58:23.390Z,7.70
2018-09-08T06:00:27.743Z,7.53
2018-09-08T06:02:31.648Z,8.38
2018-09-08T06:04:35.532Z,7.50
2018-09-08T06:06:39.643Z,7.17
2018-09-08T06:08:44.040Z,7.12
2018-09-08T06:10:48.920Z,7.70
2018-09-08T06:12:52.873Z,7.28
2018-09-08T06:14:56.551Z,7.60
2018-09-08T06:17:00.519Z,8.37
2018-09-08T06:19:04.218Z,7.10
2018-09-08T06:21:09.210Z,7.50
2018-09-08T06:23:12.769Z,6.93
2018-09-08T06:25:16.460Z,7.57
2018-09-08T06:27:20.064Z,7.43
2018-09-08T06:29:23.666Z,7.53
2018-09-08T06:31:27.284Z,8.20
2018-09-08T06:33:30.970Z,8.20
2018-09-08T06:35:34.761Z,8.67
2018-09-08T06:37:38.356Z,8.80
2018-09-08T06:39:42.036Z,7.40
2018-09-08T06:41:45.653Z,6.87
2018-09-08T06:43:49.334Z,5.60
2018-09-08T06:45:53.341Z,4.90
2018-09-08T06:47:57.160Z,4.77
2018-09-08T06:50:00.792Z,5.43
2018-09-08T06:52:04.364Z,5.30
2018-09-08T06:54:08.657Z,4.80
2018-09-08T06:56:12.712Z,5.40
2018-09-08T06:58:16.390Z,5.03
2018-09-08T07:00:20.008Z,5.00
2018-09-08T07:02:23.572Z,4.23
2018-09-08T07:04:27.187Z,4.33
2018-09-08T07:06:30.821Z,4.57
2018-09-08T07:08:34.483Z,5.03
2018-09-08T07:10:40.140Z,4.37
2018-09-08T07:12:44.581Z,5.00
2018-09-08T07:14:48.211Z,4.37
2018-09-08T07:16:51.965Z,4.47
2018-09-08T07:18:55.597Z,4.50
2018-09-08T07:20:59.298Z,4.57
2018-09-08T07:23:02.976Z,4.03
2018-09-08T07:25:08.047Z,4.50
2018-09-08T07:27:11.723Z,4.33
2018-09-08T07:29:15.329Z,4.30
2018-09-08T07:31:18.942Z,4.57
2018-09-08T07:33:22.525Z,4.63
2018-09-08T07:35:26.561Z,4.10
2018-09-08T07:37:30.325Z,3.53
2018-09-08T07:39:34.032Z,3.87
2018-09-08T07:41:37.638Z,3.40
2018-09-08T07:43:42.112Z,4.00
2018-09-08T07:45:45.727Z,4.03
2018-09-08T07:47:49.271Z,3.63
2018-09-08T07:49:53.420Z,4.20
2018-09-08T07:51:57.015Z,4.17
2018-09-08T07:54:00.671Z,3.80
2018-09-08T07:56:04.428Z,4.00
2018-09-08T07:58:08.005Z,3.90
2018-09-08T08:00:11.744Z,3.20
2018-09-08T08:02:15.355Z,3.53
2018-09-08T08:04:20.402Z,3.40
2018-09-08T08:06:24.043Z,3.13
2018-09-08T08:08:27.892Z,2.50
2018-09-08T08:10:31.485Z,2.40
2018-09-08T08:12:35.023Z,2.20
2018-09-08T08:14:38.900Z,2.00
2018-09-08T08:16:42.729Z,2.00
2018-09-08T08:18:46.444Z,2.07
2018-09-08T08:20:50.112Z,1.60
2018-09-08T08:22:54.118Z,1.87
2018-09-08T08:24:57.738Z,2.00
2018-09-08T08:27:01.739Z,1.63
2018-09-08T08:29:05.407Z,1.40
2018-09-08T08:31:09.277Z,1.50
2018-09-08T08:33:13.043Z,1.70
2018-09-08T08:35:17.026Z,1.00
2018-09-08T08:37:20.851Z,1.10
2018-09-08T08:39:24.551Z,1.17
2018-09-08T08:41:28.966Z,1.10
2018-09-08T08:43:39.080Z,1.30
2018-09-08T08:45:43.195Z,1.00
2018-09-08T08:47:47.102Z,1.20
2018-09-08T08:50:01.969Z,1.00
2018-09-08T08:52:16.846Z,1.17
2018-09-08T08:54:23.324Z,1.00
2018-09-08T08:56:27.306Z,0.90
2018-09-08T08:58:30.853Z,1.20
2018-09-08T09:00:34.449Z,0.80
2018-09-08T09:02:38.034Z,0.93
2018-09-08T09:04:42.120Z,0.90
2018-09-08T09:06:45.801Z,0.90
2018-09-08T09:08:49.807Z,0.97
2018-09-08T09:10:53.825Z,0.90
2018-09-08T09:12:58.504Z,1.00
2018-09-08T09:15:02.599Z,1.00
2018-09-08T09:17:06.458Z,1.20
2018-09-08T09:19:35.183Z,1.00
2018-09-08T09:21:50.102Z,1.13
2018-09-08T09:25:00.956Z,1.20
2018-09-08T09:27:05.082Z,1.30
2018-09-08T09:29:08.612Z,1.00
2018-09-08T09:31:12.181Z,1.13
2018-09-08T09:33:15.740Z,1.10
2018-09-08T09:35:21.664Z,0.80
2018-09-08T09:37:25.260Z,1.10
2018-09-08T09:39:29.029Z,1.17
2018-09-08T09:41:32.620Z,1.30
2018-09-08T09:43:37.148Z,1.30
2018-09-08T09:45:40.701Z,1.47
2018-09-08T09:47:44.272Z,1.40
2018-09-08T09:49:47.893Z,1.20
2018-09-08T09:51:51.573Z,1.40
2018-09-08T09:53:55.877Z,1.07
2018-09-08T09:55:59.490Z,1.30
2018-09-08T09:58:03.014Z,1.40
2018-09-08T10:00:09.040Z,1.20
2018-09-08T10:02:44.994Z,1.50
2018-09-08T10:04:49.218Z,1.00
2018-09-08T10:06:53.892Z,1.03
2018-09-08T10:08:57.997Z,1.40
2018-09-08T10:11:01.560Z,1.50
2018-09-08T10:13:05.189Z,1.50
2018-09-08T10:15:09.906Z,1.10
2018-09-08T10:17:14.497Z,1.03
2018-09-08T10:19:18.148Z,1.27
2018-09-08T10:21:22.063Z,1.60
2018-09-08T10:23:25.672Z,1.13
2018-09-08T10:25:29.506Z,1.20
2018-09-08T10:27:33.118Z,1.17
2018-09-08T10:29:37.204Z,1.37
2018-09-08T10:31:41.964Z,1.20
2018-09-08T10:33:45.500Z,1.40
2018-09-08T10:35:49.024Z,1.33
2018-09-08T10:37:52.871Z,1.00
2018-09-08T10:39:56.479Z,1.60
2018-09-08T10:42:00.106Z,1.17
2018-09-08T10:44:04.561Z,1.10
2018-09-08T10:46:08.250Z,1.33
2018-09-08T10:48:12.206Z,1.00
2018-09-08T10:50:16.104Z,0.90
2018-09-08T10:52:23.233Z,0.90
2018-09-08T10:54:26.750Z,1.10
2018-09-08T10:56:31.245Z,0.80
2018-09-08T10:58:35.262Z,1.00
2018-09-08T11:00:39.218Z,1.43
2018-09-08T11:02:43.084Z,1.00
2018-09-08T11:04:46.636Z,1.17
2018-09-08T11:06:50.367Z,1.23
2018-09-08T11:08:54.691Z,1.50
2018-09-08T11:10:58.454Z,1.50
2018-09-08T11:13:02.459Z,1.13
2018-09-08T11:15:08.168Z,1.10
2018-09-08T11:17:11.705Z,1.20
2018-09-08T11:19:18.544Z,1.30
2018-09-08T11:21:22.074Z,1.10
2018-09-08T11:23:25.711Z,1.27
2018-09-08T11:25:29.369Z,1.20
2018-09-08T11:27:32.943Z,0.80
2018-09-08T11:29:36.572Z,1.50
2018-09-08T11:31:40.389Z,1.30
2018-09-08T11:33:43.993Z,1.03
2018-09-08T11:35:47.650Z,1.27
2018-09-08T11:37:51.313Z,1.23
2018-09-08T11:39:55.000Z,1.07
2018-09-08T11:41:58.567Z,1.20
2018-09-08T11:44:02.157Z,1.10
2018-09-08T11:46:05.733Z,1.03
2018-09-08T11:48:09.345Z,1.03
2018-09-08T11:50:13.285Z,1.00
2018-09-08T11:52:16.911Z,1.07
2018-09-08T11:54:20.498Z,1.10
2018-09-08T11:56:24.079Z,1.17
2018-09-08T11:58:28.092Z,0.83
2018-09-08T12:00:31.683Z,1.10
2018-09-08T12:02:35.266Z,1.07
2018-09-08T12:04:38.843Z,1.50
2018-09-08T12:06:42.420Z,1.10
2018-09-08T12:08:46.076Z,1.50
2018-09-08T12:10:49.663Z,1.00
2018-09-08T12:12:54.397Z,1.20
2018-09-08T12:14:58.254Z,0.97
2018-09-08T12:17:01.826Z,1.07
2018-09-08T12:19:05.485Z,1.07
2018-09-08T12:21:09.239Z,1.20
2018-09-08T12:23:12.826Z,0.97
2018-09-08T12:25:16.848Z,1.07
2018-09-08T12:27:20.398Z,1.40
2018-09-08T12:29:23.976Z,1.17
2018-09-08T12:31:27.542Z,1.13
2018-09-08T12:33:31.860Z,1.10
2018-09-08T12:35:35.489Z,1.10
2018-09-08T12:37:39.087Z,1.10
2018-09-08T12:39:43.287Z,1.20
2018-09-08T12:41:46.834Z,1.37
2018-09-08T12:43:50.984Z,1.90
2018-09-08T12:45:54.619Z,1.33
2018-09-08T12:47:59.191Z,1.03
2018-09-08T12:50:02.788Z,1.70
2018-09-08T12:52:06.708Z,1.03
2018-09-08T12:54:10.352Z,1.50
2018-09-08T12:56:14.292Z,0.93
2018-09-08T12:58:17.817Z,1.23
2018-09-08T13:00:21.417Z,1.00
2018-09-08T13:02:26.440Z,1.10
2018-09-08T13:04:30.225Z,1.23
2018-09-08T13:06:33.768Z,1.00
2018-09-08T13:08:37.488Z,1.00
2018-09-08T13:10:41.135Z,0.93
2018-09-08T13:12:44.720Z,1.20
2018-09-08T13:14:48.539Z,1.10
2018-09-08T13:16:52.118Z,1.07
2018-09-08T13:18:55.709Z,1.30
2018-09-08T13:20:59.945Z,1.27
2018-09-08T13:23:03.954Z,1.20
2018-09-08T13:25:08.481Z,1.37
2018-09-08T13:27:12.501Z,0.93
2018-09-08T13:29:16.104Z,1.07
2018-09-08T13:31:19.760Z,1.33
2018-09-08T13:33:23.317Z,1.10
2018-09-08T13:35:27.055Z,1.30
2018-09-08T13:37:30.587Z,1.10
2018-09-08T13:39:34.178Z,0.97
2018-09-08T13:41:38.246Z,1.20
2018-09-08T13:43:41.892Z,1.20
2018-09-08T13:45:46.100Z,0.90
2018-09-08T13:47:49.644Z,1.30
2018-09-08T13:49:53.226Z,1.33
2018-09-08T13:51:57.055Z,1.13
2018-09-08T13:54:01.206Z,0.90
2018-09-08T13:56:05.282Z,1.40
2018-09-08T13:58:09.202Z,1.30
2018-09-08T14:00:12.850Z,1.10
2018-09-08T14:02:17.473Z,1.20
2018-09-08T14:04:21.130Z,1.27
2018-09-08T14:06:25.124Z,1.47
2018-09-08T14:08:28.777Z,1.17
2018-09-08T14:10:32.356Z,1.20
2018-09-08T14:12:35.936Z,1.30
2018-09-08T14:14:39.877Z,0.87
2018-09-08T14:16:43.464Z,1.20
2018-09-08T14:18:47.016Z,1.40
2018-09-08T14:20:50.625Z,1.20
2018-09-08T14:22:55.249Z,1.37
2018-09-08T14:24:58.806Z,1.20
2018-09-08T14:27:02.844Z,1.10
2018-09-08T14:29:07.151Z,1.20
2018-09-08T14:31:10.662Z,1.10
2018-09-08T14:33:14.187Z,1.40
2018-09-08T14:35:17.824Z,1.30
2018-09-08T14:37:21.496Z,1.30
2018-09-08T14:39:25.094Z,1.17
2018-09-08T14:41:28.679Z,1.40
2018-09-08T14:43:33.049Z,1.27
2018-09-08T14:45:36.602Z,1.00
2018-09-08T14:47:40.398Z,1.00
2018-09-08T14:49:44.062Z,1.20
2018-09-08T14:51:47.716Z,1.07
2018-09-08T14:53:51.279Z,1.00
2018-09-08T14:55:54.839Z,1.23
2018-09-08T14:57:58.379Z,1.10
2018-09-08T15:00:01.967Z,1.00
2018-09-08T15:02:06.228Z,1.10
2018-09-08T15:04:10.358Z,1.10
2018-09-08T15:06:14.039Z,1.30
2018-09-08T15:08:18.155Z,1.40
2018-09-08T15:10:21.743Z,1.20
2018-09-08T15:12:25.300Z,1.33
2018-09-08T15:14:29.042Z,1.30
2018-09-08T15:16:32.702Z,1.07
2018-09-08T15:18:36.449Z,1.70
2018-09-08T15:20:40.445Z,1.10
2018-09-08T15:22:44.075Z,1.17
2018-09-08T15:24:47.641Z,1.10
2018-09-08T15:26:51.142Z,1.10
2018-09-08T15:28:54.919Z,1.40
2018-09-08T15:30:58.452Z,1.30
2018-09-08T15:33:01.993Z,1.20
2018-09-08T15:35:05.589Z,1.33
2018-09-08T15:37:09.170Z,1.33
2018-09-08T15:39:13.010Z,1.10
2018-09-08T15:41:16.569Z,1.10
2018-09-08T15:43:20.084Z,1.17
2018-09-08T15:45:23.659Z,1.30
2018-09-08T15:47:28.825Z,1.23
2018-09-08T15:49:32.355Z,1.07
2018-09-08T15:51:36.000Z,1.20
2018-09-08T15:53:39.689Z,1.00
2018-09-08T15:55:44.098Z,1.40
2018-09-08T15:57:48.048Z,1.00
2018-09-08T15:59:51.623Z,1.37
2018-09-08T16:01:55.194Z,1.30
2018-09-08T16:03:59.008Z,1.10
2018-09-08T16:06:02.515Z,1.33
2018-09-08T16:08:06.504Z,1.30
2018-09-08T16:10:10.081Z,1.40
2018-09-08T16:12:13.633Z,1.20
2018-09-08T16:14:17.226Z,1.30
2018-09-08T16:16:20.953Z,2.43
2018-09-08T16:18:24.512Z,1.10
2018-09-08T16:20:28.104Z,1.20
2018-09-08T16:22:31.629Z,1.20
2018-09-08T16:24:35.195Z,1.10
2018-09-08T16:26:39.504Z,1.23
2018-09-08T16:28:43.130Z,1.50
2018-09-08T16:30:46.864Z,1.40
2018-09-08T16:32:50.561Z,1.37
2018-09-08T16:34:54.305Z,1.23
2018-09-08T16:36:58.609Z,1.20
2018-09-08T16:39:02.286Z,1.20
2018-09-08T16:41:05.913Z,1.33
2018-09-08T16:43:09.921Z,1.20
2018-09-08T16:45:13.606Z,1.17
2018-09-08T16:47:17.246Z,1.10
2018-09-08T16:49:20.772Z,0.97
2018-09-08T16:51:24.608Z,1.17
2018-09-08T16:53:28.176Z,1.20
2018-09-08T16:55:31.789Z,1.23
2018-09-08T16:57:35.361Z,1.30
2018-09-08T16:59:39.279Z,1.10
2018-09-08T17:01:42.857Z,1.30
2018-09-08T17:03:46.565Z,1.40
2018-09-08T17:05:50.185Z,1.00
2018-09-08T17:07:54.685Z,1.47
2018-09-08T17:09:58.293Z,1.00
2018-09-08T17:12:01.899Z,0.90
2018-09-08T17:14:05.481Z,1.00
2018-09-08T17:16:09.023Z,0.97
2018-09-08T17:18:13.293Z,1.43
2018-09-08T17:20:16.895Z,1.10
2018-09-08T17:22:20.459Z,1.30
2018-09-08T17:24:25.049Z,1.03
2018-09-08T17:26:28.907Z,1.07
2018-09-08T17:28:32.612Z,1.23
2018-09-08T17:30:36.172Z,1.30
2018-09-08T17:32:39.771Z,1.13
2018-09-08T17:34:43.361Z,1.83
2018-09-08T17:36:46.984Z,1.30
2018-09-08T17:38:50.579Z,1.27
2018-09-08T17:40:54.356Z,1.23
2018-09-08T17:42:58.410Z,1.30
2018-09-08T17:45:02.183Z,2.33
2018-09-08T17:47:05.878Z,2.90
2018-09-08T17:49:09.445Z,2.60
2018-09-08T17:51:13.108Z,2.60
2018-09-08T17:53:16.773Z,3.10
2018-09-08T17:55:26.864Z,2.63
2018-09-08T17:57:30.621Z,2.40
2018-09-08T17:59:34.673Z,3.03
2018-09-08T18:01:38.858Z,3.07
2018-09-08T18:03:42.412Z,2.60
2018-09-08T18:05:46.150Z,1.83
2018-09-08T18:07:49.923Z,2.00
2018-09-08T18:09:53.465Z,2.63
2018-09-08T18:11:57.126Z,2.37
2018-09-08T18:14:00.801Z,3.90
2018-09-08T18:16:04.417Z,4.63
2018-09-08T18:18:08.320Z,3.77
2018-09-08T18:20:11.897Z,2.70
2018-09-08T18:22:15.511Z,3.17
2018-09-08T18:24:19.078Z,3.43
2018-09-08T18:26:22.663Z,3.00
2018-09-08T18:28:26.609Z,2.47
2018-09-08T18:30:30.676Z,1.93
2018-09-08T18:32:34.383Z,1.87
2018-09-08T18:34:38.636Z,1.70
2018-09-08T18:36:43.221Z,2.13
2018-09-08T18:38:46.757Z,1.70
2018-09-08T18:40:51.308Z,1.93
2018-09-08T18:42:54.872Z,1.97
2018-09-08T18:44:59.426Z,1.53
2018-09-08T18:47:02.998Z,1.90
2018-09-08T18:49:06.572Z,1.77
2018-09-08T18:51:10.911Z,2.30
2018-09-08T18:53:14.855Z,1.77
2018-09-08T18:55:19.130Z,1.73
2018-09-08T18:57:23.701Z,2.10
2018-09-08T18:59:27.493Z,2.10
2018-09-08T19:01:32.442Z,2.53
2018-09-08T19:03:36.539Z,2.30
2018-09-08T19:05:40.253Z,2.50
2018-09-08T19:07:43.856Z,2.80
2018-09-08T19:10:06.224Z,2.83
2018-09-08T19:12:09.787Z,2.00
2018-09-08T19:14:18.566Z,2.27
2018-09-08T19:16:22.177Z,2.20
2018-09-08T19:18:25.788Z,2.00
2018-09-08T19:20:34.514Z,2.10
2018-09-08T19:22:38.614Z,2.23
2018-09-08T19:24:44.454Z,2.10
2018-09-08T19:26:48.045Z,2.67
2018-09-08T19:28:57.428Z,2.50
2018-09-08T19:31:00.982Z,3.50
2018-09-08T19:33:04.563Z,3.63
2018-09-08T19:35:13.444Z,2.70
2018-09-08T19:37:17.006Z,2.07
2018-09-08T19:39:20.567Z,2.47
2018-09-08T19:41:24.153Z,1.90
2018-09-08T19:43:27.695Z,1.70
2018-09-08T19:45:31.300Z,1.97
2018-09-08T19:47:40.291Z,1.80
2018-09-08T19:49:43.940Z,2.30
2018-09-08T19:51:47.549Z,3.13
2018-09-08T19:53:56.983Z,2.63
2018-09-08T19:56:00.550Z,2.50
2018-09-08T19:58:09.293Z,2.80
2018-09-08T20:00:12.828Z,2.50
2018-09-08T20:02:16.480Z,3.47
2018-09-08T20:04:20.191Z,2.90
2018-09-08T20:06:23.868Z,2.90
2018-09-08T20:08:27.731Z,2.90
2018-09-08T20:10:31.290Z,2.80
2018-09-08T20:12:35.575Z,3.30
2018-09-08T20:14:39.570Z,3.40
2018-09-08T20:16:43.102Z,2.77
2018-09-08T20:18:46.671Z,3.00
2018-09-08T20:20:50.268Z,3.67
2018-09-08T20:22:53.830Z,3.30
2018-09-08T20:24:57.433Z,3.10
2018-09-08T20:27:01.053Z,3.37
2018-09-08T20:29:04.712Z,2.83
2018-09-08T20:31:08.251Z,2.93
2018-09-08T20:33:11.859Z,2.77
2018-09-08T20:35:15.455Z,3.23
2018-09-08T20:37:19.017Z,3.00
2018-09-08T20:39:22.544Z,2.50
2018-09-08T20:41:26.086Z,2.57
2018-09-08T20:43:30.179Z,2.50
2018-09-08T20:45:33.736Z,2.60
2018-09-08T20:47:37.363Z,2.53
2018-09-08T20:49:41.338Z,1.93
2018-09-08T20:51:45.012Z,2.60
2018-09-08T20:53:48.887Z,2.50
2018-09-08T20:55:52.520Z,2.73
2018-09-08T20:57:56.094Z,2.70
2018-09-08T20:59:59.612Z,3.03
2018-09-08T21:02:03.156Z,2.67
2018-09-08T21:04:07.137Z,3.20
2018-09-08T21:06:10.632Z,2.50
2018-09-08T21:08:15.250Z,2.33
2018-09-08T21:10:18.828Z,2.20
2018-09-08T21:12:22.364Z,2.30
2018-09-08T21:14:25.919Z,2.33
2018-09-08T21:16:29.496Z,2.17
2018-09-08T21:18:33.632Z,2.50
2018-09-08T21:20:37.494Z,2.30
2018-09-08T21:22:41.566Z,2.83
2018-09-08T21:24:45.447Z,2.40
2018-09-08T21:26:48.937Z,2.43
2018-09-08T21:28:52.599Z,2.60
2018-09-08T21:30:56.194Z,3.00
2018-09-08T21:32:59.779Z,2.40
2018-09-08T21:35:03.341Z,2.20
2018-09-08T21:37:06.996Z,2.30
2018-09-08T21:39:10.997Z,2.60
2018-09-08T21:41:14.543Z,2.53
2018-09-08T21:43:18.150Z,2.50
2018-09-08T21:45:21.782Z,2.33
2018-09-08T21:47:25.397Z,2.73
2018-09-08T21:49:29.369Z,2.60
2018-09-08T21:51:33.396Z,2.53
2018-09-08T21:53:36.971Z,2.40
2018-09-08T21:55:40.541Z,2.60
2018-09-08T21:57:44.168Z,2.73
2018-09-08T21:59:47.712Z,3.23
2018-09-08T22:01:51.287Z,3.23
2018-09-08T22:03:55.541Z,3.40
2018-09-08T22:05:59.780Z,2.60
2018-09-08T22:08:03.395Z,2.23
2018-09-08T22:10:07.424Z,2.33
2018-09-08T22:12:12.305Z,2.50
2018-09-08T22:14:16.750Z,2.30
2018-09-08T22:16:20.743Z,2.17
2018-09-08T22:18:24.636Z,2.07
2018-09-08T22:20:28.627Z,2.80
2018-09-08T22:22:33.200Z,2.90
2018-09-08T22:24:36.865Z,2.70
2018-09-08T22:26:40.488Z,2.73
2018-09-08T22:28:44.549Z,3.07
2018-09-08T22:30:48.451Z,2.80
2018-09-08T22:32:52.489Z,2.63
2018-09-08T22:34:56.597Z,2.90
2018-09-08T22:37:00.827Z,3.47
2018-09-08T22:39:05.672Z,3.33
2018-09-08T22:41:09.707Z,3.07
2018-09-08T22:43:13.286Z,2.87
2018-09-08T22:45:16.864Z,2.53
2018-09-08T22:47:25.617Z,2.57
2018-09-08T22:49:29.287Z,2.40
2018-09-08T22:51:32.933Z,2.87
2018-09-08T22:53:36.442Z,2.80
2018-09-08T22:55:40.098Z,2.97
2018-09-08T22:57:43.729Z,2.90
2018-09-08T22:59:47.355Z,2.70
2018-09-08T23:01:51.059Z,3.10
2018-09-08T23:03:54.667Z,2.77
2018-09-08T23:05:58.177Z,2.70
2018-09-08T23:08:01.817Z,3.10
2018-09-08T23:10:05.960Z,2.70
2018-09-08T23:12:09.522Z,3.00
2018-09-08T23:14:13.107Z,2.70
2018-09-08T23:16:17.303Z,2.77
2018-09-08T23:18:20.908Z,2.87
2018-09-08T23:20:24.524Z,2.50
2018-09-08T23:22:28.046Z,2.90
2018-09-08T23:24:31.609Z,2.50
2018-09-08T23:26:35.238Z,2.60
2018-09-08T23:28:38.849Z,2.70
2018-09-08T23:30:43.200Z,2.60
2018-09-08T23:32:46.808Z,2.70
2018-09-08T23:34:50.440Z,2.80
2018-09-08T23:36:54.048Z,2.73
2018-09-08T23:38:57.657Z,2.50
2018-09-08T23:41:01.241Z,2.83
2018-09-08T23:43:04.857Z,3.00
2018-09-08T23:45:08.465Z,2.97
2018-09-08T23:47:12.059Z,2.97
2018-09-08T23:49:15.664Z,2.80
2018-09-08T23:51:19.310Z,2.73
2018-09-08T23:53:23.131Z,3.07
2018-09-08T23:55:26.754Z,2.43
2018-09-08T23:57:30.341Z,2.93
2018-09-08T23:59:34.369Z,2.97
